Panna Maria, TX

7:44 AM CDT on October 25, 2014 (GMT -0500)
Pleasanton Municipal | Change Station
CLOSE
Current Station
Airport
Location: Pleasanton,
Elevation: 430 ft
Nearby Weather Stations

Elev 430 ft 28.96 °N, 98.52 °W | Updated 9 minutes ago

Clear
Clear
56 °F
Feels Like 56 °F
N
0
Wind Variable Wind from North

Today
High -- | Low -- °F
--% Chance of Precip.
Yesterday
High -- | Low -- °F
Precip. -- in
7:39 AM 6:51 PM
Waxing Crescent, 3% visible
Pressure 30.16 in
Visibility 1.8 miles
Clouds
Dew Point 54 °F
Humidity 94%
Rainfall 0.00 in
Snow Depth Not available.
UV Not available.
Pollen 6.10 out of 12
Air Quality Not available.
Flu Activity Local Activity
METAR KPEZ 251235Z AUTO 00000KT 1 3/4SM BR VV007 13/12 A3016 RMK AO2 VIS 1/2V5 T01340124

More Conditions Fewer Conditions

Pressure 30.16 in
Visibility 1.8 miles
Clouds
Dew Point 54 °F
Humidity 94%
Rainfall 0.00 in
Snow Depth Not available.
UV Not available.
Pollen 6.10 out of 12
Air Quality Not available.
Flu Activity Local Activity
METAR KPEZ 251235Z AUTO 00000KT 1 3/4SM BR VV007 13/12 A3016 RMK AO2 VIS 1/2V5 T01340124

More Conditions Fewer Conditions

10-Day Weather Forecast

Almanac

Astronomy

Oct. 25, 2014 Rise Set
Actual Time 7:39 AM CDT 6:51 PM CDT
Civil Twilight 7:14 AM CDT 7:15 PM CDT
Nautical Twilight 6:47 AM CDT 7:43 PM CDT
Astronomical Twilight 6:19 AM CDT 8:11 PM CDT
Moon 9:13 AM CDT 8:22 PM CDT
Length of Visible Light 12h 00m
Length of Day
11h 12m
Tomorrow will be 1m 35s shorter.
Waxing Crescent, 3% of the Moon is Illuminated
Today
Waxing Crescent
Oct 30
First Quarter
Nov 6
Full
Nov 14
Last Quarter
Nov 22
New

Today's Extremes

State Highs State Lows

Community

WunderPhotos

Upload Photos

1,764,821 photos uploaded!

Nearby

Snow Depth

Station Depth Elevation
No new snow has been reported.

Earthquake Activity

City Distance Mag. Time & Date
No recent earthquake activity has been reported nearby.
Minimum magnitude displayed is 2.5.

Coastal Water Temperatures

Place Temperature
No Stations Reporting

Nearby Weather Stations